createdAt,value
2018-12-12T00:02:18.952Z,10.00
2018-12-12T00:05:23.558Z,10.13
2018-12-12T00:08:28.265Z,9.60
2018-12-12T00:11:32.941Z,9.23
2018-12-12T00:14:37.486Z,8.77
2018-12-12T00:17:42.473Z,8.93
2018-12-12T00:20:46.975Z,10.17
2018-12-12T00:23:51.670Z,9.93
2018-12-12T00:26:56.385Z,10.33
2018-12-12T00:30:00.917Z,10.27
2018-12-12T00:33:05.570Z,9.60
2018-12-12T00:36:10.065Z,11.87
2018-12-12T00:39:14.801Z,11.70
2018-12-12T00:42:19.373Z,10.30
2018-12-12T00:45:24.233Z,10.17
2018-12-12T00:48:28.835Z,10.10
2018-12-12T00:51:33.985Z,9.87
2018-12-12T00:54:39.029Z,9.50
2018-12-12T00:57:43.738Z,8.00
2018-12-12T01:00:48.397Z,7.60
2018-12-12T01:03:53.101Z,8.00
2018-12-12T01:06:57.661Z,6.93
2018-12-12T01:10:02.244Z,7.37
2018-12-12T01:13:06.907Z,7.73
2018-12-12T01:16:11.564Z,7.50
2018-12-12T01:19:16.108Z,7.43
2018-12-12T01:22:20.736Z,8.00
2018-12-12T01:25:25.238Z,7.37
2018-12-12T01:28:29.859Z,8.20
2018-12-12T01:31:34.523Z,8.03
2018-12-12T01:34:39.081Z,7.53
2018-12-12T01:37:43.672Z,7.90
2018-12-12T01:40:48.199Z,7.50
2018-12-12T01:43:52.804Z,7.50
2018-12-12T01:46:57.453Z,7.50
2018-12-12T01:50:02.080Z,7.77
2018-12-12T01:53:06.705Z,7.77
2018-12-12T01:56:11.317Z,8.50
2018-12-12T01:59:15.963Z,7.90
2018-12-12T02:02:20.489Z,8.93
2018-12-12T02:05:25.306Z,9.23
2018-12-12T02:08:29.968Z,7.77
2018-12-12T02:11:34.542Z,7.83
2018-12-12T02:14:39.140Z,8.93
2018-12-12T02:17:43.719Z,8.43
2018-12-12T02:20:48.308Z,8.27
2018-12-12T02:23:52.952Z,8.23
2018-12-12T02:26:57.520Z,8.63
2018-12-12T02:30:01.987Z,8.37
2018-12-12T02:33:06.544Z,7.93
2018-12-12T02:36:11.402Z,8.23
2018-12-12T02:39:16.034Z,8.73
2018-12-12T02:42:20.643Z,8.83
2018-12-12T02:45:25.281Z,8.60
2018-12-12T02:48:31.123Z,8.20
2018-12-12T02:51:35.707Z,8.17
2018-12-12T02:54:40.199Z,8.47
2018-12-12T02:57:44.731Z,9.13
2018-12-12T03:00:49.354Z,8.73
2018-12-12T03:03:54.032Z,8.50
2018-12-12T03:06:58.725Z,8.17
2018-12-12T03:10:03.466Z,8.73
2018-12-12T03:13:08.035Z,8.03
2018-12-12T03:16:12.516Z,8.07
2018-12-12T03:19:17.259Z,9.80
2018-12-12T03:22:21.918Z,9.27
2018-12-12T03:25:26.600Z,10.17
2018-12-12T03:28:31.194Z,9.27
2018-12-12T03:31:35.790Z,8.67
2018-12-12T03:34:40.326Z,8.33
2018-12-12T03:37:44.890Z,8.53
2018-12-12T03:40:49.596Z,7.60
2018-12-12T03:43:54.179Z,7.33
2018-12-12T03:46:58.684Z,7.80
2018-12-12T03:50:03.485Z,7.63
2018-12-12T03:53:08.243Z,8.70
2018-12-12T03:56:12.765Z,8.73
2018-12-12T03:59:17.500Z,9.10
2018-12-12T04:02:22.073Z,9.67
2018-12-12T04:05:26.666Z,10.13
2018-12-12T04:08:31.316Z,9.23
2018-12-12T04:11:35.897Z,9.10
2018-12-12T04:14:40.841Z,7.83
2018-12-12T04:17:45.359Z,6.83
2018-12-12T04:20:49.950Z,6.43
2018-12-12T04:23:54.499Z,6.00
2018-12-12T04:26:58.994Z,6.17
2018-12-12T04:30:03.820Z,7.43
2018-12-12T04:33:08.463Z,7.73
2018-12-12T04:36:13.114Z,6.43
2018-12-12T04:39:17.811Z,6.50
2018-12-12T04:42:22.640Z,6.90
2018-12-12T04:45:27.285Z,6.97
2018-12-12T04:48:31.888Z,5.43
2018-12-12T04:51:36.577Z,6.33
2018-12-12T04:54:41.265Z,5.33
2018-12-12T04:57:45.878Z,5.33
2018-12-12T05:00:50.691Z,5.43
2018-12-12T05:03:55.396Z,5.73
2018-12-12T05:06:59.955Z,5.20
2018-12-12T05:10:04.764Z,4.70
2018-12-12T05:13:09.370Z,5.23
2018-12-12T05:16:13.929Z,5.83
2018-12-12T05:19:18.603Z,6.40
2018-12-12T05:22:23.363Z,7.23
2018-12-12T05:25:27.943Z,7.67
2018-12-12T05:28:32.565Z,7.97
2018-12-12T05:31:37.190Z,8.00
2018-12-12T05:34:41.703Z,8.10
2018-12-12T05:37:51.782Z,9.10
2018-12-12T05:40:52.946Z,8.80
2018-12-12T05:43:57.772Z,10.67
2018-12-12T05:47:02.504Z,10.10
2018-12-12T05:50:07.825Z,7.13
2018-12-12T05:53:12.625Z,6.13
2018-12-12T05:56:17.163Z,6.37
2018-12-12T05:59:21.790Z,5.87
2018-12-12T06:02:26.505Z,6.77
2018-12-12T06:05:31.087Z,13.27
2018-12-12T06:08:35.750Z,10.70
2018-12-12T06:11:40.259Z,29.63
2018-12-12T06:14:44.897Z,10.73
2018-12-12T06:17:49.465Z,7.47
2018-12-12T06:20:54.365Z,4.70
2018-12-12T06:23:58.956Z,4.43
2018-12-12T06:27:03.521Z,3.90
2018-12-12T06:30:09.655Z,3.23
2018-12-12T06:33:14.322Z,4.60
2018-12-12T06:36:18.898Z,5.33
2018-12-12T06:39:23.845Z,6.27
2018-12-12T06:42:28.463Z,6.20
2018-12-12T06:45:33.102Z,5.23
2018-12-12T06:48:37.772Z,5.07
2018-12-12T06:51:42.557Z,5.73
2018-12-12T06:54:47.309Z,5.03
2018-12-12T06:57:53.488Z,5.50
2018-12-12T07:00:58.032Z,5.97
2018-12-12T07:04:02.744Z,5.50
2018-12-12T07:07:08.379Z,6.20
2018-12-12T07:10:13.029Z,6.07
2018-12-12T07:13:17.665Z,5.83
2018-12-12T07:16:22.314Z,6.10
2018-12-12T07:19:27.060Z,5.87
2018-12-12T07:22:31.617Z,6.83
2018-12-12T07:25:36.182Z,5.70
2018-12-12T07:28:40.823Z,5.63
2018-12-12T07:31:45.399Z,5.40
2018-12-12T07:34:49.964Z,4.70
2018-12-12T07:37:54.706Z,5.73
2018-12-12T07:41:02.358Z,5.30
2018-12-12T07:44:07.110Z,5.77
2018-12-12T07:47:11.823Z,5.50
2018-12-12T07:50:16.293Z,5.83
2018-12-12T07:53:20.931Z,5.83
2018-12-12T07:56:25.829Z,6.00
2018-12-12T07:59:30.480Z,5.67
2018-12-12T08:02:35.234Z,4.87
2018-12-12T08:05:39.892Z,5.60
2018-12-12T08:08:44.499Z,5.60
2018-12-12T08:11:49.165Z,4.60
2018-12-12T08:14:53.797Z,5.13
2018-12-12T08:17:58.737Z,4.33
2018-12-12T08:21:03.276Z,5.00
2018-12-12T08:24:07.768Z,5.10
2018-12-12T08:27:12.638Z,5.57
2018-12-12T08:30:17.178Z,4.97
2018-12-12T08:33:21.916Z,4.83
2018-12-12T08:36:26.600Z,4.63
2018-12-12T08:39:31.212Z,5.13
2018-12-12T08:42:35.791Z,4.00
2018-12-12T08:45:40.583Z,4.53
2018-12-12T08:48:45.276Z,3.83
2018-12-12T08:51:49.879Z,4.37
2018-12-12T08:54:54.583Z,4.40
2018-12-12T08:57:59.363Z,4.37
2018-12-12T09:01:03.943Z,4.70
2018-12-12T09:04:08.624Z,4.70
2018-12-12T09:07:13.229Z,4.30
2018-12-12T09:10:18.011Z,4.80
2018-12-12T09:13:22.762Z,4.40
2018-12-12T09:16:27.574Z,4.63
2018-12-12T09:19:32.089Z,4.73
2018-12-12T09:22:36.676Z,4.20
2018-12-12T09:25:41.206Z,4.30
2018-12-12T09:28:45.838Z,4.70
2018-12-12T09:31:50.420Z,4.60
2018-12-12T09:34:55.129Z,4.20
2018-12-12T09:37:59.638Z,4.80
2018-12-12T09:41:04.266Z,4.33
2018-12-12T09:44:09.158Z,4.40
2018-12-12T09:47:13.707Z,4.63
2018-12-12T09:50:18.824Z,4.60
2018-12-12T09:53:23.413Z,3.87
2018-12-12T09:56:28.085Z,4.30
2018-12-12T09:59:32.630Z,4.23
2018-12-12T10:02:37.228Z,4.07
2018-12-12T10:05:41.805Z,3.63
2018-12-12T10:08:46.462Z,3.53
2018-12-12T10:11:51.042Z,3.90
2018-12-12T10:14:55.881Z,3.90
2018-12-12T10:18:00.595Z,3.70
2018-12-12T10:21:05.259Z,3.10
2018-12-12T10:24:10.747Z,3.43
2018-12-12T10:27:15.405Z,3.30
2018-12-12T10:30:19.916Z,3.13
2018-12-12T10:33:24.451Z,2.97
2018-12-12T10:36:28.974Z,3.00
2018-12-12T10:39:33.583Z,3.50
2018-12-12T10:42:38.252Z,3.40
2018-12-12T10:45:42.889Z,3.50
2018-12-12T10:48:47.538Z,3.10
2018-12-12T10:51:52.515Z,3.87
2018-12-12T10:54:57.018Z,3.40
2018-12-12T10:58:01.626Z,2.70
2018-12-12T11:01:11.338Z,2.50
2018-12-12T11:04:17.110Z,4.63
2018-12-12T11:07:21.637Z,2.73
2018-12-12T11:10:27.315Z,2.90
2018-12-12T11:13:31.870Z,1.70
2018-12-12T11:16:36.420Z,1.70
2018-12-12T11:19:40.863Z,1.90
2018-12-12T11:22:45.380Z,1.83
2018-12-12T11:25:50.108Z,1.80
2018-12-12T11:28:54.802Z,1.90
2018-12-12T11:31:59.605Z,1.87
2018-12-12T11:35:04.401Z,2.27
2018-12-12T11:38:09.122Z,1.73
2018-12-12T11:41:13.716Z,2.00
2018-12-12T11:44:18.257Z,1.60
2018-12-12T11:47:22.934Z,1.80
2018-12-12T11:50:27.408Z,1.80
2018-12-12T11:53:32.076Z,1.53
2018-12-12T11:56:36.646Z,1.83
2018-12-12T11:59:41.102Z,1.63
2018-12-12T12:02:45.751Z,1.60
2018-12-12T12:05:50.327Z,1.80
2018-12-12T12:08:54.928Z,1.67
2018-12-12T12:11:59.679Z,1.60
2018-12-12T12:15:04.746Z,1.40
2018-12-12T12:18:09.432Z,1.50
2018-12-12T12:21:13.947Z,1.50
2018-12-12T12:24:18.547Z,1.93
2018-12-12T12:27:23.221Z,1.77
2018-12-12T12:30:27.781Z,2.90
2018-12-12T12:33:32.324Z,2.00
2018-12-12T12:36:36.955Z,1.60
2018-12-12T12:39:41.521Z,2.30
2018-12-12T12:42:45.953Z,1.60
2018-12-12T12:45:50.526Z,1.57
2018-12-12T12:48:55.181Z,1.60
2018-12-12T12:51:59.703Z,1.50
2018-12-12T12:55:04.456Z,1.77
2018-12-12T12:58:09.011Z,1.67
2018-12-12T13:01:13.604Z,1.60
2018-12-12T13:04:18.154Z,1.40
2018-12-12T13:07:22.749Z,1.57
2018-12-12T13:10:27.611Z,1.60
2018-12-12T13:13:32.295Z,1.90
2018-12-12T13:16:37.062Z,1.20
2018-12-12T13:19:41.680Z,1.60
2018-12-12T13:22:46.254Z,1.30
2018-12-12T13:25:51.003Z,1.50
2018-12-12T13:28:55.586Z,1.70
2018-12-12T13:32:00.156Z,1.47
2018-12-12T13:35:05.234Z,1.53
2018-12-12T13:38:10.450Z,1.30
2018-12-12T13:41:15.173Z,1.43
2018-12-12T13:44:19.757Z,1.70
2018-12-12T13:47:24.338Z,1.63
2018-12-12T13:50:29.082Z,1.47
2018-12-12T13:53:33.646Z,1.40
2018-12-12T13:56:44.076Z,1.20
2018-12-12T13:59:48.926Z,1.87
2018-12-12T14:02:53.671Z,3.47
2018-12-12T14:05:58.384Z,21.27
2018-12-12T14:09:05.931Z,6.30
2018-12-12T14:12:17.113Z,12.47
2018-12-12T14:15:18.411Z,17.47
2018-12-12T14:18:22.939Z,3.13
2018-12-12T14:21:27.746Z,2.47
2018-12-12T14:24:32.463Z,1.70
2018-12-12T14:27:38.979Z,1.63
2018-12-12T14:30:43.881Z,2.40
2018-12-12T14:33:48.507Z,2.67
2018-12-12T14:36:53.470Z,3.30
2018-12-12T14:39:58.126Z,1.47
2018-12-12T14:43:02.670Z,1.50
2018-12-12T14:46:08.645Z,1.40
2018-12-12T14:49:13.213Z,0.90
2018-12-12T14:52:17.745Z,1.30
2018-12-12T14:55:22.260Z,1.20
2018-12-12T14:58:26.806Z,1.20
2018-12-12T15:01:31.685Z,1.73
2018-12-12T15:04:36.307Z,1.70
2018-12-12T15:07:41.188Z,1.90
2018-12-12T15:10:45.924Z,2.10
2018-12-12T15:13:51.429Z,2.00
2018-12-12T15:16:56.129Z,1.80
2018-12-12T15:20:00.820Z,1.40
2018-12-12T15:23:05.531Z,2.20
2018-12-12T15:26:10.294Z,2.30
2018-12-12T15:29:15.078Z,2.17
2018-12-12T15:32:20.065Z,1.90
2018-12-12T15:35:24.881Z,2.27
2018-12-12T15:38:29.540Z,2.07
2018-12-12T15:41:34.258Z,1.57
2018-12-12T15:44:38.870Z,1.77
2018-12-12T15:47:43.711Z,1.80
2018-12-12T15:50:48.434Z,2.30
2018-12-12T15:53:53.048Z,11.33
2018-12-12T15:56:57.974Z,4.57
2018-12-12T16:00:02.713Z,3.27
2018-12-12T16:03:07.454Z,1.50
2018-12-12T16:06:12.075Z,1.40
2018-12-12T16:09:16.588Z,1.23
2018-12-12T16:12:21.255Z,1.50
2018-12-12T16:15:25.852Z,1.50
2018-12-12T16:18:30.411Z,1.20
2018-12-12T16:21:34.962Z,1.30
2018-12-12T16:24:39.533Z,1.73
2018-12-12T16:27:44.109Z,1.50
2018-12-12T16:30:48.597Z,1.53
2018-12-12T16:33:53.156Z,1.43
2018-12-12T16:36:57.720Z,1.73
2018-12-12T16:40:02.433Z,1.30
2018-12-12T16:43:06.962Z,1.47
2018-12-12T16:46:11.609Z,1.90
2018-12-12T16:49:16.191Z,1.60
2018-12-12T16:52:20.895Z,1.30
2018-12-12T16:55:25.540Z,1.87
2018-12-12T16:58:30.070Z,2.93
2018-12-12T17:01:34.970Z,1.60
2018-12-12T17:04:39.605Z,1.50
2018-12-12T17:07:44.444Z,2.57
2018-12-12T17:10:49.030Z,1.73
2018-12-12T17:13:53.683Z,3.23
2018-12-12T17:16:58.422Z,2.93
2018-12-12T17:20:03.173Z,5.33
2018-12-12T17:23:08.023Z,1.90
2018-12-12T17:26:12.845Z,3.40
2018-12-12T17:29:17.540Z,2.00
2018-12-12T17:32:22.128Z,2.60
2018-12-12T17:35:26.866Z,2.63
2018-12-12T17:38:31.393Z,2.73
2018-12-12T17:41:36.057Z,3.50
2018-12-12T17:44:40.813Z,2.43
2018-12-12T17:47:45.280Z,2.70
2018-12-12T17:50:49.939Z,2.47
2018-12-12T17:53:54.498Z,2.97
2018-12-12T17:56:59.090Z,2.30
2018-12-12T18:00:04.378Z,2.50
2018-12-12T18:03:09.153Z,2.17
2018-12-12T18:06:14.034Z,2.30
2018-12-12T18:09:18.698Z,2.10
2018-12-12T18:12:23.309Z,2.40
2018-12-12T18:15:28.009Z,2.50
2018-12-12T18:18:32.586Z,4.17
2018-12-12T18:21:37.298Z,2.60
2018-12-12T18:24:41.929Z,3.00
2018-12-12T18:27:46.506Z,3.37
2018-12-12T18:30:51.173Z,5.13
2018-12-12T18:33:55.913Z,4.87
2018-12-12T18:37:00.577Z,6.37
2018-12-12T18:40:05.806Z,4.10
2018-12-12T18:43:10.624Z,4.30
2018-12-12T18:46:15.472Z,4.40
2018-12-12T18:49:20.177Z,4.20
2018-12-12T18:52:24.881Z,4.30
2018-12-12T18:55:29.563Z,3.53
2018-12-12T18:58:34.143Z,3.57
2018-12-12T19:01:38.833Z,3.33
2018-12-12T19:04:43.386Z,4.30
2018-12-12T19:07:48.121Z,4.53
2018-12-12T19:10:52.693Z,4.67
2018-12-12T19:13:57.305Z,3.87
2018-12-12T19:17:01.964Z,4.20
2018-12-12T19:20:08.380Z,5.00
2018-12-12T19:23:13.458Z,4.13
2018-12-12T19:26:18.079Z,6.10
2018-12-12T19:29:22.684Z,7.53
2018-12-12T19:32:27.224Z,7.93
2018-12-12T19:35:34.753Z,6.70
2018-12-12T19:38:39.482Z,6.37
2018-12-12T19:41:44.290Z,6.03
2018-12-12T19:44:48.932Z,4.57
2018-12-12T19:47:53.534Z,5.33
2018-12-12T19:50:58.123Z,7.53
2018-12-12T19:54:02.729Z,7.53
2018-12-12T19:57:07.240Z,8.33
2018-12-12T20:00:12.340Z,6.00
2018-12-12T20:03:16.863Z,5.77
2018-12-12T20:06:21.577Z,5.27
2018-12-12T20:09:26.388Z,5.57
2018-12-12T20:12:30.990Z,5.83
2018-12-12T20:15:40.896Z,4.57
2018-12-12T20:18:45.661Z,6.47
2018-12-12T20:21:50.328Z,5.77
2018-12-12T20:24:54.860Z,6.80
2018-12-12T20:28:04.140Z,8.53
2018-12-12T20:31:08.782Z,7.53
2018-12-12T20:34:13.309Z,8.43
2018-12-12T20:37:17.882Z,11.37
2018-12-12T20:40:22.633Z,11.90
2018-12-12T20:43:27.806Z,15.67
2018-12-12T20:46:32.755Z,16.07
2018-12-12T20:49:37.395Z,10.23
2018-12-12T20:52:42.309Z,7.23
2018-12-12T20:55:47.168Z,5.47
2018-12-12T20:58:51.710Z,6.33
2018-12-12T21:01:57.234Z,6.00
2018-12-12T21:05:01.831Z,9.93
2018-12-12T21:11:20.753Z,4.33
2018-12-12T21:14:25.535Z,4.80
2018-12-12T21:17:30.101Z,4.37
2018-12-12T21:20:35.423Z,3.73
2018-12-12T21:23:40.081Z,3.40
2018-12-12T21:26:44.961Z,4.27
2018-12-12T21:29:49.668Z,5.40
2018-12-12T21:32:54.443Z,4.80
2018-12-12T21:36:00.904Z,4.17
2018-12-12T21:39:08.058Z,4.50
2018-12-12T21:42:12.760Z,5.83
2018-12-12T21:45:17.342Z,4.50
2018-12-12T21:48:21.983Z,4.20
2018-12-12T21:51:26.874Z,4.20
2018-12-12T21:54:31.712Z,4.57
2018-12-12T21:57:36.531Z,4.43
2018-12-12T22:00:41.201Z,3.90
2018-12-12T22:03:45.937Z,4.60
2018-12-12T22:06:50.637Z,5.17
2018-12-12T22:09:55.256Z,3.60
2018-12-12T22:12:59.936Z,3.27
2018-12-12T22:16:04.485Z,4.47
2018-12-12T22:19:09.119Z,4.63
2018-12-12T22:22:13.789Z,4.87
2018-12-12T22:25:18.499Z,4.17
2018-12-12T22:28:23.052Z,4.30
2018-12-12T22:31:27.802Z,5.23
2018-12-12T22:34:32.296Z,5.83
2018-12-12T22:37:36.931Z,4.00
2018-12-12T22:40:41.631Z,4.77
2018-12-12T22:43:46.173Z,4.70
2018-12-12T22:46:50.809Z,5.37
2018-12-12T22:49:55.417Z,3.70
2018-12-12T22:53:00.072Z,4.00
2018-12-12T22:56:04.559Z,5.20
2018-12-12T22:59:09.213Z,4.23
2018-12-12T23:02:13.963Z,4.97
2018-12-12T23:05:18.553Z,5.03
2018-12-12T23:08:23.307Z,5.30
2018-12-12T23:11:28.009Z,5.47
2018-12-12T23:14:32.630Z,4.77
2018-12-12T23:17:37.188Z,4.57
2018-12-12T23:20:41.779Z,4.30
2018-12-12T23:23:46.323Z,4.53
2018-12-12T23:26:50.893Z,4.73
2018-12-12T23:29:55.428Z,4.50
2018-12-12T23:33:00.057Z,4.57
2018-12-12T23:36:04.494Z,4.57
2018-12-12T23:39:09.341Z,4.03
2018-12-12T23:42:13.886Z,4.80
2018-12-12T23:45:18.480Z,4.70
2018-12-12T23:48:23.079Z,5.70
2018-12-12T23:51:27.677Z,6.10
2018-12-12T23:54:32.348Z,6.90
2018-12-12T23:57:36.899Z,6.50
